Minchumina, Alaska
Current Conditions -  °F | °C
As of 3:52 AM on Wednesday 22 Oct 2014 (Local Time) from PATA Reporting Station
Overcast Overcast  
Wind Chill: 18°   Ceiling: 5500
Heat Index: 24°   Visibility: 10mi
Dew Point: 20°   Wind: 5mph
Humidity: 84%   Direction: 320°NW
Pressure: 29.59"   Gusts: NA
Location:  63.9°N, 152.27°W
Report Text: PATA 221152Z AUTO 32004KT 10SM OVC055 M04/M07 A2959 RMK AO2 SLP024 T10441067 11044 21067 53005 TSNO
Loading
Personal Weather Stations






























Interactive Weather Map
Tropical Storm Tracking
New forecast layout! Learn more

10-Day Weather Forecast

Advertisements
Track Severe Weather on mobile